Time;durP1;ratioP1;P1;durP2;ratioP2;P2;SDS_P1;SDS_P2;PMS_P1;PMS_P2;Temp;Humidity;BMP_temperature;BMP_pressure;BME280_temperature;BME280_humidity;BME280_pressure;Samples;Min_cycle;Max_cycle;Signal;HPM_P1;HPM_P2
2021/06/18 00:00:54;;;;;;;11.88;8.45;;;;;;;26.58;52.04;100484.44;5048561;28;20033;-68
2021/06/18 00:03:21;;;;;;;8.75;7.95;;;;;;;26.40;53.28;100476.66;5048658;28;20129;-68
2021/06/18 00:05:48;;;;;;;10.68;8.82;;;;;;;26.26;54.05;100482.72;5047974;28;20040;-68
2021/06/18 00:08:14;;;;;;;10.40;8.93;;;;;;;26.26;53.72;100483.56;5047966;28;20041;-68
2021/06/18 00:10:41;;;;;;;9.88;8.88;;;;;;;26.28;53.80;100478.88;5046956;28;20554;-68
2021/06/18 00:13:08;;;;;;;13.48;10.02;;;;;;;26.29;53.80;100475.19;5048486;28;20047;-68
2021/06/18 00:15:35;;;;;;;11.20;10.27;;;;;;;26.30;53.39;100476.03;5048371;28;20086;-69
2021/06/18 00:18:02;;;;;;;10.98;9.73;;;;;;;26.18;54.03;100475.56;5048178;28;20422;-67
2021/06/18 00:20:28;;;;;;;12.57;10.52;;;;;;;26.12;54.36;100481.63;5048056;28;20037;-69
2021/06/18 00:22:55;;;;;;;11.15;10.05;;;;;;;26.23;54.07;100480.41;5047947;28;20098;-69
2021/06/18 00:25:22;;;;;;;11.43;10.30;;;;;;;26.27;53.66;100473.72;5049330;28;20064;-68
2021/06/18 00:27:48;;;;;;;10.45;9.52;;;;;;;26.29;53.63;100469.03;5048557;28;20036;-68
2021/06/18 00:30:16;;;;;;;10.73;9.73;;;;;;;26.26;53.52;100464.00;5048142;28;20037;-69
2021/06/18 00:32:44;;;;;;;11.60;10.35;;;;;;;26.33;52.78;100465.00;5048692;28;20041;-68
2021/06/18 00:35:11;;;;;;;10.48;9.57;;;;;;;26.36;52.82;100457.44;5048398;28;20041;-69
2021/06/18 00:37:38;;;;;;;10.65;9.60;;;;;;;26.33;52.91;100465.84;5047531;28;20440;-69
2021/06/18 00:40:05;;;;;;;12.85;9.35;;;;;;;26.35;52.75;100466.47;5047911;28;20125;-66
2021/06/18 00:42:32;;;;;;;12.10;9.40;;;;;;;26.34;52.19;100459.47;5047993;28;20492;-66
2021/06/18 00:44:59;;;;;;;10.18;9.07;;;;;;;26.37;52.40;100455.63;5047361;28;20071;-67
2021/06/18 00:47:28;;;;;;;11.85;8.50;;;;;;;26.33;51.77;100451.63;5048262;28;20091;-66
2021/06/18 00:49:56;;;;;;;9.40;8.50;;;;;;;26.34;51.71;100446.13;5047713;28;20395;-67
2021/06/18 00:52:22;;;;;;;10.40;9.10;;;;;;;26.38;50.84;100446.59;5047862;28;20048;-66
2021/06/18 00:54:50;;;;;;;9.57;8.75;;;;;;;26.40;51.24;100441.91;5047719;28;20063;-67
2021/06/18 00:57:17;;;;;;;8.90;8.10;;;;;;;26.36;52.00;100443.25;5047292;28;20068;-67
2021/06/18 00:59:44;;;;;;;9.73;8.82;;;;;;;26.30;51.72;100438.63;5047557;28;20399;-69
2021/06/18 01:02:11;;;;;;;10.55;9.65;;;;;;;26.31;52.42;100446.47;5048427;28;20556;-69
2021/06/18 01:04:40;;;;;;;9.65;8.60;;;;;;;26.27;52.24;100444.31;5047354;28;20131;-69
2021/06/18 01:07:11;;;;;;;11.13;10.18;;;;;;;26.21;52.70;100451.19;5047122;28;20037;-69
2021/06/18 01:10:03;;;;;;;12.57;9.82;;;;;;;26.21;52.91;100450.38;5047802;28;20095;-69
2021/06/18 01:12:42;;;;;;;9.68;8.77;;;;;;;26.18;53.05;100448.03;5029207;28;20048;-67
2021/06/18 01:15:17;;;;;;;11.52;10.43;;;;;;;25.95;53.47;100451.44;5046584;28;20128;-68
2021/06/18 01:17:50;;;;;;;11.40;10.50;;;;;;;25.48;55.81;100454.00;5046416;28;20130;-68
2021/06/18 01:20:22;;;;;;;13.13;11.15;;;;;;;25.52;56.09;100456.16;5047399;28;20067;-68
2021/06/18 01:22:52;;;;;;;12.80;10.43;;;;;;;25.59;55.93;100465.16;5046926;28;20037;-69
2021/06/18 01:25:31;;;;;;;12.93;11.65;;;;;;;25.54;56.12;100467.50;5047246;28;20049;-68
2021/06/18 01:28:30;;;;;;;13.40;11.30;;;;;;;25.52;55.92;100466.84;5048237;28;20110;-68
2021/06/18 01:30:59;;;;;;;15.15;9.98;;;;;;;25.57;55.76;100466.34;5046932;28;20040;-69
2021/06/18 01:33:28;;;;;;;12.43;11.23;;;;;;;25.65;55.49;100465.50;5046737;28;20041;-68
2021/06/18 01:35:59;;;;;;;12.23;11.20;;;;;;;25.62;55.64;100469.34;5047070;28;20067;-68
2021/06/18 01:38:30;;;;;;;12.45;11.20;;;;;;;25.64;55.84;100474.50;5046185;28;20033;-69
2021/06/18 01:41:01;;;;;;;12.82;11.70;;;;;;;25.68;55.77;100470.50;5045574;28;20091;-69
2021/06/18 01:43:31;;;;;;;14.82;13.25;;;;;;;25.68;55.48;100457.16;5046850;28;20090;-68
2021/06/18 01:45:58;;;;;;;15.48;13.75;;;;;;;25.69;55.67;100466.81;5047765;28;20051;-68
2021/06/18 01:48:27;;;;;;;15.15;13.60;;;;;;;25.54;56.02;100458.66;5046833;28;20115;-68
2021/06/18 01:50:56;;;;;;;14.80;13.23;;;;;;;25.59;55.24;100465.16;5046408;28;20033;-68
2021/06/18 01:53:25;;;;;;;14.95;13.68;;;;;;;25.65;54.71;100465.50;5046619;28;20094;-68
2021/06/18 01:55:54;;;;;;;15.27;13.68;;;;;;;25.63;55.27;100472.84;5045467;28;20041;-69
2021/06/18 01:58:23;;;;;;;15.93;11.52;;;;;;;25.66;54.50;100467.16;5047896;28;20515;-68
2021/06/18 02:00:51;;;;;;;11.52;10.30;;;;;;;25.67;53.95;100471.47;5047467;28;20542;-68
2021/06/18 02:03:24;;;;;;;10.27;9.40;;;;;;;25.69;52.84;100461.50;5046822;28;20098;-68
2021/06/18 02:05:53;;;;;;;9.93;9.10;;;;;;;25.66;52.68;100464.47;5045700;28;21155;-68
2021/06/18 02:08:21;;;;;;;10.90;9.98;;;;;;;25.64;52.59;100461.16;5045085;28;20045;-68
2021/06/18 02:10:51;;;;;;;9.93;8.95;;;;;;;25.66;52.52;100467.16;5044927;28;20597;-69
2021/06/18 02:13:20;;;;;;;8.85;7.93;;;;;;;25.67;52.38;100466.97;5046097;28;20072;-69
2021/06/18 02:15:48;;;;;;;8.63;7.93;;;;;;;25.58;52.80;100460.84;5047729;28;20399;-69
2021/06/18 02:18:20;;;;;;;8.60;7.93;;;;;;;25.52;52.10;100461.50;5046691;28;20045;-68
2021/06/18 02:20:51;;;;;;;8.05;7.25;;;;;;;25.53;52.23;100465.84;5045092;28;20033;-68
2021/06/18 02:23:17;;;;;;;7.95;7.25;;;;;;;25.48;52.30;100470.00;5046535;28;20041;-68
2021/06/18 02:25:46;;;;;;;8.48;7.63;;;;;;;25.47;52.17;100463.84;5047281;28;20045;-68
2021/06/18 02:28:13;;;;;;;9.20;8.32;;;;;;;25.44;52.08;100458.84;5047642;28;20253;-68
2021/06/18 02:30:41;;;;;;;8.77;8.07;;;;;;;25.45;51.40;100459.66;5049724;28;20049;-68
2021/06/18 02:33:13;;;;;;;8.82;8.02;;;;;;;25.40;51.93;100462.84;5050456;28;20037;-68
2021/06/18 02:35:42;;;;;;;8.98;8.07;;;;;;;25.37;51.46;100463.19;5050155;28;20037;-69
2021/06/18 02:38:10;;;;;;;7.78;7.10;;;;;;;25.39;51.55;100466.50;5050070;28;20086;-69
2021/06/18 02:40:38;;;;;;;8.07;7.47;;;;;;;25.42;51.41;100466.19;5050578;28;20086;-69
2021/06/18 02:43:05;;;;;;;11.77;8.48;;;;;;;25.44;51.34;100463.34;5050956;28;20484;-69
2021/06/18 02:45:33;;;;;;;8.45;7.55;;;;;;;25.44;51.30;100472.19;5050263;28;20045;-68
2021/06/18 02:48:08;;;;;;;9.27;7.47;;;;;;;25.38;51.74;100483.53;5049181;28;20091;-68
2021/06/18 02:50:40;;;;;;;8.20;7.43;;;;;;;25.36;51.93;100484.72;5049594;28;20044;-69
2021/06/18 02:53:59;;;;;;;8.55;7.68;;;;;;;25.30;51.95;100489.72;5049915;28;20049;-68
2021/06/18 02:56:46;;;;;;;8.93;8.13;;;;;;;25.24;52.20;100501.00;5038100;28;20577;-68
2021/06/18 02:59:24;;;;;;;7.97;7.18;;;;;;;25.16;52.64;100503.69;5049645;28;20037;-67
2021/06/18 03:01:56;;;;;;;10.50;7.80;;;;;;;25.21;52.11;100503.19;5051194;28;20114;-67
2021/06/18 03:04:26;;;;;;;9.60;8.68;;;;;;;25.16;52.22;100497.53;5053452;28;20057;-67
2021/06/18 03:06:56;;;;;;;8.18;7.43;;;;;;;25.15;52.22;100493.19;5055798;28;20045;-67
2021/06/18 03:09:29;;;;;;;7.72;7.03;;;;;;;25.22;51.90;100497.69;5054105;28;20044;-67
2021/06/18 03:11:57;;;;;;;8.38;7.50;;;;;;;25.11;52.38;100515.84;5055219;28;20045;-67
2021/06/18 03:14:28;;;;;;;9.77;8.77;;;;;;;25.10;52.83;100508.84;5073588;28;20442;-68
2021/06/18 03:17:00;;;;;;;11.60;7.90;;;;;;;25.01;53.28;100515.97;5054589;28;20450;-67
2021/06/18 03:19:32;;;;;;;8.98;8.18;;;;;;;24.96;53.50;100512.94;5055099;28;20043;-66
2021/06/18 03:22:02;;;;;;;9.02;8.13;;;;;;;24.98;53.45;100517.13;5054988;28;20037;-67
2021/06/18 03:24:31;;;;;;;8.63;7.93;;;;;;;24.96;53.64;100520.94;5053462;28;20480;-68
2021/06/18 03:26:59;;;;;;;8.48;7.68;;;;;;;24.82;54.36;100517.94;5054944;28;20044;-67
2021/06/18 03:29:29;;;;;;;11.98;7.97;;;;;;;24.82;54.09;100517.06;5057724;28;20036;-68
2021/06/18 03:31:57;;;;;;;14.30;7.40;;;;;;;24.93;53.34;100514.13;5054279;28;20039;-66
2021/06/18 03:34:28;;;;;;;9.05;8.07;;;;;;;24.92;52.93;100523.09;5054851;28;20059;-66
2021/06/18 03:36:57;;;;;;;9.13;8.30;;;;;;;24.88;53.02;100532.44;5055078;28;20033;-67
2021/06/18 03:39:25;;;;;;;9.05;8.35;;;;;;;24.73;54.13;100542.88;5055816;28;20111;-66
2021/06/18 03:41:52;;;;;;;9.05;8.25;;;;;;;24.40;54.97;100549.91;5055423;28;20048;-65
2021/06/18 03:44:22;;;;;;;10.60;7.80;;;;;;;24.48;54.40;100546.44;5056687;28;20491;-67
2021/06/18 03:46:51;;;;;;;10.55;8.50;;;;;;;24.59;54.25;100555.97;5052786;28;20045;-66
2021/06/18 03:49:18;;;;;;;8.77;7.78;;;;;;;24.67;53.62;100561.38;5055602;28;20034;-66
2021/06/18 03:51:45;;;;;;;8.43;7.63;;;;;;;24.63;54.02;100555.50;5054898;28;20442;-67
2021/06/18 03:54:12;;;;;;;9.00;8.20;;;;;;;24.62;53.69;100553.00;5053221;28;20048;-68
2021/06/18 03:56:42;;;;;;;8.43;7.65;;;;;;;24.65;53.45;100558.00;5053403;28;20067;-66
2021/06/18 03:59:12;;;;;;;9.70;8.10;;;;;;;24.64;53.29;100561.66;5054524;28;20400;-66
2021/06/18 04:01:43;;;;;;;8.30;7.50;;;;;;;24.62;53.31;100561.00;5052372;28;20041;-68
2021/06/18 04:04:11;;;;;;;8.43;6.85;;;;;;;24.59;53.14;100561.31;5063587;28;20079;-68
2021/06/18 04:06:38;;;;;;;8.10;7.32;;;;;;;24.64;52.69;100562.50;5061608;28;20043;-67
2021/06/18 04:09:05;;;;;;;8.45;7.55;;;;;;;24.68;52.60;100563.03;5068088;28;20110;-69
2021/06/18 04:11:34;;;;;;;13.80;8.35;;;;;;;24.74;51.84;100573.03;5056008;28;20479;-69
2021/06/18 04:14:02;;;;;;;10.82;6.68;;;;;;;24.72;51.43;100567.88;5047939;28;20459;-70
2021/06/18 04:16:29;;;;;;;7.50;6.75;;;;;;;24.75;50.99;100569.38;5054857;28;20045;-70
2021/06/18 04:18:58;;;;;;;11.52;6.65;;;;;;;24.70;51.44;100571.69;5055084;28;20069;-68
2021/06/18 04:21:26;;;;;;;7.03;6.30;;;;;;;24.68;51.52;100565.69;5048738;28;20044;-67
2021/06/18 04:23:53;;;;;;;9.60;6.18;;;;;;;24.61;51.97;100559.31;5054382;28;20492;-69
2021/06/18 04:26:21;;;;;;;6.82;6.10;;;;;;;24.67;51.97;100564.88;5054310;28;20041;-67
2021/06/18 04:28:47;;;;;;;7.95;7.15;;;;;;;24.63;52.57;100565.34;5054273;28;20036;-69
2021/06/18 04:31:14;;;;;;;8.48;7.78;;;;;;;24.66;52.64;100565.00;5054490;28;20041;-69
2021/06/18 04:33:41;;;;;;;7.25;6.70;;;;;;;24.75;53.04;100569.38;5054458;28;20049;-68
2021/06/18 04:36:08;;;;;;;8.43;7.72;;;;;;;24.79;53.13;100565.41;5054282;28;20139;-70
2021/06/18 04:38:39;;;;;;;10.82;8.00;;;;;;;24.88;53.06;100569.78;5054163;28;20045;-70
2021/06/18 04:41:06;;;;;;;9.65;7.75;;;;;;;24.97;52.92;100560.78;5053834;28;20124;-67
2021/06/18 04:43:33;;;;;;;8.65;7.82;;;;;;;25.07;52.83;100558.84;5054120;28;20052;-68
2021/06/18 04:46:00;;;;;;;11.90;9.68;;;;;;;25.04;53.07;100559.16;5048733;28;20492;-67
2021/06/18 04:48:28;;;;;;;9.27;7.82;;;;;;;25.12;53.06;100560.19;5045515;28;20466;-67
2021/06/18 04:50:56;;;;;;;10.25;7.82;;;;;;;25.22;52.98;100564.38;5045360;28;20114;-68
2021/06/18 04:53:23;;;;;;;10.23;8.40;;;;;;;25.33;52.94;100563.25;5046982;28;20033;-66
2021/06/18 04:55:50;;;;;;;9.10;8.10;;;;;;;25.45;52.60;100567.25;5046786;28;20049;-68
2021/06/18 04:58:18;;;;;;;9.73;8.10;;;;;;;25.64;52.32;100576.78;5046322;28;20052;-68
2021/06/18 05:00:45;;;;;;;9.38;8.45;;;;;;;25.75;52.49;100572.97;5046256;28;20163;-68
2021/06/18 05:03:12;;;;;;;14.38;9.70;;;;;;;25.88;52.27;100575.97;5046215;28;20449;-68
2021/06/18 05:05:38;;;;;;;12.07;10.80;;;;;;;25.86;52.74;100581.47;5046183;28;20053;-68
2021/06/18 05:08:05;;;;;;;12.38;9.57;;;;;;;25.63;54.41;100584.97;5046137;28;20174;-69
2021/06/18 05:10:32;;;;;;;11.15;10.10;;;;;;;25.45;56.55;100588.59;5047139;28;20033;-70
2021/06/18 05:12:59;;;;;;;14.82;9.55;;;;;;;25.43;56.23;100584.44;5042993;28;20395;-67
2021/06/18 05:15:26;;;;;;;18.02;9.30;;;;;;;25.43;56.12;100595.94;5043818;28;20095;-68
2021/06/18 05:17:53;;;;;;;9.90;8.65;;;;;;;25.54;55.33;100595.63;5044953;28;20040;-68
2021/06/18 05:20:19;;;;;;;11.75;9.23;;;;;;;25.73;55.12;100596.31;5046194;28;20118;-65
2021/06/18 05:22:46;;;;;;;11.05;9.10;;;;;;;25.97;54.29;100595.50;5045874;28;20037;-67
2021/06/18 05:25:14;;;;;;;12.77;9.70;;;;;;;26.03;54.32;100592.97;5045917;28;20450;-67
2021/06/18 05:27:41;;;;;;;10.18;8.90;;;;;;;26.03;54.01;100584.13;5045761;28;20049;-67
2021/06/18 05:30:09;;;;;;;15.57;9.63;;;;;;;26.10;53.72;100588.66;5045041;28;20041;-68
2021/06/18 05:32:45;;;;;;;21.60;9.15;;;;;;;26.26;52.75;100582.44;5045508;28;20467;-69
2021/06/18 05:35:13;;;;;;;21.05;9.82;;;;;;;26.28;52.25;100584.94;5043159;28;20040;-67
2021/06/18 05:37:40;;;;;;;21.33;8.45;;;;;;;26.30;51.60;100578.41;5045079;28;20045;-69
2021/06/18 05:40:08;;;;;;;17.17;9.35;;;;;;;26.44;51.60;100581.44;5046798;28;20705;-68
2021/06/18 05:42:36;;;;;;;21.13;8.13;;;;;;;26.43;51.51;100577.91;5045158;28;20095;-69
2021/06/18 05:45:04;;;;;;;18.38;8.88;;;;;;;26.28;52.92;100584.94;5045510;28;20037;-70
2021/06/18 05:47:31;;;;;;;29.08;9.77;;;;;;;26.36;53.48;100587.56;5045471;28;20411;-68
2021/06/18 05:50:06;;;;;;;15.60;9.05;;;;;;;26.28;54.57;100595.63;5047787;28;20112;-69
2021/06/18 05:52:33;;;;;;;20.33;9.18;;;;;;;26.26;54.52;100593.13;5046273;28;20044;-66
2021/06/18 05:55:00;;;;;;;13.00;7.95;;;;;;;26.47;53.50;100581.91;5045192;28;20044;-67
2021/06/18 05:57:27;;;;;;;12.20;8.57;;;;;;;26.53;52.77;100591.94;5045018;28;20094;-67
2021/06/18 05:59:53;;;;;;;13.02;7.35;;;;;;;26.39;54.02;100596.09;5045544;28;20067;-68
2021/06/18 06:02:22;;;;;;;17.35;9.20;;;;;;;26.27;54.18;100589.47;5045311;28;20045;-69
2021/06/18 06:04:49;;;;;;;10.20;7.15;;;;;;;26.41;52.81;100587.06;5044368;28;20057;-68
2021/06/18 06:07:15;;;;;;;7.05;4.93;;;;;;;26.52;48.11;100587.56;5043483;28;20041;-67
2021/06/18 06:09:42;;;;;;;6.07;5.55;;;;;;;26.59;46.93;100591.25;5044771;28;20094;-67
2021/06/18 06:12:09;;;;;;;7.97;5.25;;;;;;;26.62;45.19;100590.88;5044506;28;20091;-68
2021/06/18 06:14:36;;;;;;;5.13;4.63;;;;;;;26.66;44.62;100596.72;5045269;28;20044;-66
2021/06/18 06:17:04;;;;;;;11.95;4.88;;;;;;;26.71;44.32;100602.38;5048227;28;20090;-67
2021/06/18 06:19:30;;;;;;;6.40;4.93;;;;;;;26.77;44.19;100604.38;5051033;28;20489;-67
2021/06/18 06:21:57;;;;;;;7.95;4.53;;;;;;;26.84;43.48;100599.97;5051402;28;20152;-69
2021/06/18 06:24:24;;;;;;;6.60;4.43;;;;;;;26.88;43.23;100608.50;5054326;28;20455;-68
2021/06/18 06:26:51;;;;;;;10.20;6.25;;;;;;;26.97;47.00;100604.78;5059828;28;20095;-66
2021/06/18 06:29:17;;;;;;;7.25;6.50;;;;;;;26.72;50.14;100609.41;5060845;28;20041;-68
2021/06/18 06:31:45;;;;;;;6.68;5.93;;;;;;;26.75;49.51;100610.91;5043574;28;20060;-67
2021/06/18 06:34:12;;;;;;;9.43;5.97;;;;;;;26.69;48.83;100612.44;5052116;28;20041;-66
2021/06/18 06:36:39;;;;;;;6.65;5.95;;;;;;;26.95;47.63;100614.81;5065004;28;20590;-66
2021/06/18 06:39:06;;;;;;;6.47;5.88;;;;;;;27.01;48.02;100615.97;5051697;28;20079;-67
2021/06/18 06:41:32;;;;;;;6.03;5.43;;;;;;;27.03;47.36;100627.34;5052757;28;20093;-67
2021/06/18 06:44:00;;;;;;;7.82;7.03;;;;;;;26.91;46.25;100618.88;5051676;28;20451;-66
2021/06/18 06:46:26;;;;;;;7.90;7.10;;;;;;;27.20;46.84;100620.91;5051737;28;20122;-66
2021/06/18 06:48:53;;;;;;;7.30;6.60;;;;;;;27.57;45.48;100614.81;5059038;28;20043;-67
2021/06/18 06:51:20;;;;;;;8.10;7.30;;;;;;;27.52;45.75;100622.56;5051728;28;20048;-69
2021/06/18 06:53:47;;;;;;;7.63;6.97;;;;;;;27.94;44.55;100622.09;5051386;28;20037;-68
2021/06/18 06:56:15;;;;;;;13.38;8.35;;;;;;;27.95;44.36;100622.94;5051496;28;20049;-66
2021/06/18 06:58:42;;;;;;;9.70;7.70;;;;;;;28.20;43.47;100613.66;5052040;28;20040;-67
2021/06/18 07:01:12;;;;;;;15.98;7.40;;;;;;;28.81;43.36;100610.00;5050883;28;20045;-69
2021/06/18 07:03:40;;;;;;;8.80;7.50;;;;;;;29.42;42.62;100615.94;5059910;28;20499;-68
2021/06/18 07:06:07;;;;;;;8.18;7.32;;;;;;;29.28;42.17;100611.41;5045044;28;20114;-68
2021/06/18 07:08:34;;;;;;;7.82;7.05;;;;;;;29.13;41.92;100614.97;5053106;28;20105;-67
2021/06/18 07:11:02;;;;;;;11.73;6.70;;;;;;;30.05;40.67;100611.56;5052748;28;20056;-69
2021/06/18 07:13:28;;;;;;;9.77;7.68;;;;;;;30.65;39.61;100604.75;5054549;28;20079;-66
2021/06/18 07:15:56;;;;;;;10.00;8.35;;;;;;;30.87;38.74;100605.50;5050329;28;20111;-70
2021/06/18 07:18:24;;;;;;;9.93;7.10;;;;;;;31.68;38.10;100605.53;5047961;28;20041;-67
2021/06/18 07:20:51;;;;;;;9.45;7.20;;;;;;;32.25;37.03;100606.78;5055500;28;20033;-70
2021/06/18 07:23:18;;;;;;;12.77;6.55;;;;;;;32.68;36.52;100609.00;5048934;28;20102;-71
2021/06/18 07:25:45;;;;;;;7.15;6.40;;;;;;;32.97;34.17;100609.53;5055582;28;20112;-72
2021/06/18 07:28:12;;;;;;;6.28;5.75;;;;;;;33.61;33.06;100611.25;5054862;28;20028;-67
2021/06/18 07:30:40;;;;;;;8.70;5.53;;;;;;;34.12;32.07;100618.38;5055026;28;20450;-67
2021/06/18 07:33:07;;;;;;;6.57;5.10;;;;;;;34.40;31.47;100624.09;5055278;28;20037;-68
2021/06/18 07:35:35;;;;;;;10.60;5.60;;;;;;;34.67;30.54;100624.69;5055450;28;20072;-68
2021/06/18 07:38:02;;;;;;;6.60;5.75;;;;;;;35.04;30.33;100607.59;5054769;28;20044;-67
2021/06/18 07:40:29;;;;;;;7.90;5.65;;;;;;;35.28;29.54;100612.06;5054628;28;20045;-66
2021/06/18 07:42:56;;;;;;;5.93;4.90;;;;;;;35.09;29.38;100610.44;5051421;28;20083;-68
2021/06/18 07:45:23;;;;;;;7.32;4.88;;;;;;;35.48;28.86;100606.38;5045818;28;20499;-67
2021/06/18 07:47:50;;;;;;;5.57;4.78;;;;;;;35.30;27.53;100609.94;5048393;28;20033;-68
2021/06/18 07:50:18;;;;;;;7.63;4.38;;;;;;;35.77;27.55;100615.50;5047287;28;20068;-67
2021/06/18 07:52:46;;;;;;;4.82;4.32;;;;;;;36.01;27.86;100615.53;5048083;28;20492;-68
2021/06/18 07:55:20;;;;;;;6.90;4.72;;;;;;;35.88;27.49;100620.13;5047698;28;20037;-68
2021/06/18 07:57:48;;;;;;;10.25;4.60;;;;;;;36.28;26.84;100614.03;5048746;28;20095;-68
2021/06/18 08:00:16;;;;;;;5.63;4.68;;;;;;;35.85;27.39;100603.47;5048810;28;20119;-68
2021/06/18 08:02:43;;;;;;;5.40;4.88;;;;;;;35.98;27.63;100607.91;5048093;28;20044;-66
2021/06/18 08:05:11;;;;;;;6.30;4.55;;;;;;;36.35;27.46;100598.44;5048101;28;20485;-68
2021/06/18 08:07:40;;;;;;;5.38;4.95;;;;;;;36.19;27.43;100604.59;5048209;28;20055;-67
2021/06/18 08:10:09;;;;;;;8.65;4.60;;;;;;;36.12;27.86;100603.91;5047937;28;20041;-68
2021/06/18 08:12:37;;;;;;;6.38;4.03;;;;;;;36.43;27.00;100589.13;5045896;28;20049;-67
2021/06/18 08:15:06;;;;;;;12.40;5.07;;;;;;;36.11;27.75;100586.75;5046306;28;20126;-66
2021/06/18 08:17:34;;;;;;;5.63;4.25;;;;;;;36.34;27.26;100588.66;5047421;28;20045;-67
2021/06/18 08:20:04;;;;;;;5.25;4.75;;;;;;;36.76;26.64;100593.91;5046849;28;20045;-68
2021/06/18 08:22:30;;;;;;;7.68;5.20;;;;;;;36.36;27.00;100594.66;5047643;28;20041;-67
2021/06/18 08:24:57;;;;;;;8.63;6.07;;;;;;;36.01;27.28;100591.13;5048026;28;20049;-68
2021/06/18 08:27:24;;;;;;;6.57;5.38;;;;;;;36.03;27.65;100589.03;5047332;28;20048;-68
2021/06/18 08:29:52;;;;;;;5.68;4.63;;;;;;;36.14;27.45;100586.31;5047654;28;20033;-68
2021/06/18 08:32:19;;;;;;;6.28;4.75;;;;;;;36.39;27.31;100594.19;5047573;28;20488;-67
2021/06/18 08:34:47;;;;;;;7.43;4.78;;;;;;;36.29;26.44;100585.81;5048159;28;20400;-65
2021/06/18 08:37:14;;;;;;;8.95;4.65;;;;;;;35.90;27.46;100588.19;5047716;28;20040;-63
2021/06/18 08:39:41;;;;;;;13.10;6.22;;;;;;;35.75;26.58;100582.38;5053175;28;20087;-65
2021/06/18 08:42:10;;;;;;;4.55;4.15;;;;;;;35.75;26.35;100585.09;5045826;28;20037;-63
2021/06/18 08:44:38;;;;;;;6.20;4.45;;;;;;;35.50;27.13;100587.16;5047292;28;20480;-66
2021/06/18 08:47:04;;;;;;;4.68;4.20;;;;;;;35.85;27.05;100581.78;5045746;28;20091;-67
2021/06/18 08:49:35;;;;;;;9.15;4.57;;;;;;;35.88;27.16;100581.31;5046072;28;20047;-65
2021/06/18 08:52:03;;;;;;;6.57;4.80;;;;;;;35.89;27.27;100578.38;5048493;28;20045;-66
2021/06/18 08:54:44;;;;;;;7.82;4.45;;;;;;;35.78;27.20;100573.75;5049875;28;20344;-66
2021/06/18 08:57:16;;;;;;;9.20;4.65;;;;;;;35.68;27.16;100571.63;5051323;28;20450;-68
2021/06/18 08:59:43;;;;;;;10.65;5.43;;;;;;;35.04;27.24;100575.91;5046316;28;20492;-66
2021/06/18 09:02:11;;;;;;;7.35;4.50;;;;;;;35.09;27.92;100577.94;5051698;28;20064;-67
2021/06/18 09:05:08;;;;;;;6.93;3.95;;;;;;;35.17;28.29;100575.75;5051447;28;20114;-66
2021/06/18 09:07:48;;;;;;;5.72;4.70;;;;;;;35.07;28.15;100585.47;5050046;28;20132;-66
2021/06/18 09:10:31;;;;;;;5.97;4.65;;;;;;;34.70;28.11;100569.25;5052599;28;20439;-65
2021/06/18 09:13:17;;;;;;;11.90;4.23;;;;;;;34.71;27.89;100573.63;5049377;28;20045;-68
2021/06/18 09:15:55;;;;;;;5.65;4.70;;;;;;;34.69;28.91;100573.03;5048949;28;20329;-62
2021/06/18 09:18:39;;;;;;;6.47;4.93;;;;;;;34.43;28.49;100562.47;5052227;28;20072;-63
2021/06/18 09:21:18;;;;;;;9.50;5.78;;;;;;;34.10;28.67;100574.50;5050302;28;20041;-62
2021/06/18 09:23:54;;;;;;;5.90;4.53;;;;;;;34.02;28.87;100582.88;5052573;28;20466;-62
2021/06/18 09:26:27;;;;;;;8.68;4.82;;;;;;;33.97;28.71;100582.72;5051046;28;20068;-65
2021/06/18 09:29:05;;;;;;;5.37;3.63;;;;;;;33.95;28.97;100582.13;5048866;28;20041;-66
2021/06/18 09:31:36;;;;;;;8.98;4.78;;;;;;;33.98;29.25;100593.31;5051205;28;20044;-63
2021/06/18 09:34:06;;;;;;;6.78;4.20;;;;;;;33.84;29.09;100584.47;5045677;28;20041;-64
2021/06/18 09:36:33;;;;;;;8.05;5.53;;;;;;;33.63;28.97;100585.69;5050935;28;20037;-64
2021/06/18 09:39:02;;;;;;;5.78;4.95;;;;;;;33.73;30.24;100593.28;5051687;28;20041;-65
2021/06/18 09:41:33;;;;;;;6.30;4.47;;;;;;;33.61;29.76;100587.78;5051249;28;20119;-66
2021/06/18 09:44:09;;;;;;;6.70;4.60;;;;;;;33.62;29.34;100592.13;5051420;28;20060;-66
2021/06/18 09:46:52;;;;;;;5.60;4.60;;;;;;;33.11;30.38;100589.53;5051354;28;20075;-65
2021/06/18 09:49:50;;;;;;;7.18;4.68;;;;;;;33.42;30.32;100593.31;5051780;28;20045;-65
2021/06/18 09:52:18;;;;;;;8.30;4.85;;;;;;;33.28;30.62;100587.97;5051726;28;20056;-62
2021/06/18 09:54:49;;;;;;;6.95;5.40;;;;;;;33.04;31.13;100583.34;5051607;28;20053;-64
2021/06/18 09:57:18;;;;;;;6.43;5.28;;;;;;;33.17;30.80;100585.94;5051455;28;20048;-64
2021/06/18 09:59:48;;;;;;;7.90;4.85;;;;;;;33.17;30.83;100585.94;5052046;28;20087;-66
2021/06/18 10:02:15;;;;;;;5.05;4.60;;;;;;;33.23;30.10;100590.47;5051887;28;20041;-64
2021/06/18 10:04:44;;;;;;;9.10;5.13;;;;;;;32.78;30.98;100578.84;5050665;28;20136;-65
2021/06/18 10:07:11;;;;;;;9.82;5.45;;;;;;;32.90;30.40;100576.34;5051644;28;20044;-65
2021/06/18 10:09:38;;;;;;;5.45;4.93;;;;;;;32.96;29.50;100575.47;5051514;28;20045;-67
2021/06/18 10:12:08;;;;;;;7.35;4.40;;;;;;;33.06;28.81;100571.25;5047658;28;20052;-66
2021/06/18 10:14:37;;;;;;;6.00;4.78;;;;;;;33.04;29.66;100569.84;5049538;28;20075;-66
2021/06/18 10:17:03;;;;;;;5.97;4.93;;;;;;;33.15;28.54;100571.03;5051122;28;20053;-66
2021/06/18 10:19:31;;;;;;;8.30;4.70;;;;;;;32.98;28.72;100570.69;5051187;28;20037;-65
2021/06/18 10:22:00;;;;;;;10.07;5.43;;;;;;;33.23;29.75;100568.03;5051418;28;20049;-65
2021/06/18 10:24:36;;;;;;;5.80;4.18;;;;;;;33.41;28.84;100561.91;5048950;28;20103;-67
2021/06/18 10:27:06;;;;;;;5.15;4.40;;;;;;;33.48;29.79;100566.25;5049451;28;20079;-69
2021/06/18 10:29:37;;;;;;;9.13;5.25;;;;;;;33.54;29.87;100569.94;5051330;28;20037;-69
2021/06/18 10:32:33;;;;;;;5.82;5.22;;;;;;;33.44;29.76;100566.91;5046358;28;20428;-66
2021/06/18 10:35:02;;;;;;;6.55;5.20;;;;;;;33.19;29.90;100559.56;5051069;28;20110;-67
2021/06/18 10:37:31;;;;;;;7.93;5.03;;;;;;;33.33;30.85;100553.00;5045952;28;20045;-69
2021/06/18 10:40:08;;;;;;;8.70;6.57;;;;;;;33.29;30.60;100554.53;5051959;28;20041;-68
2021/06/18 10:42:35;;;;;;;6.82;5.30;;;;;;;33.18;30.27;100557.06;5045885;28;20057;-70
2021/06/18 10:45:03;;;;;;;8.13;5.20;;;;;;;33.06;31.03;100554.22;5050825;28;20082;-68
2021/06/18 10:47:31;;;;;;;6.50;4.95;;;;;;;33.32;30.71;100548.66;5048523;28;20049;-70
2021/06/18 10:49:59;;;;;;;8.43;5.45;;;;;;;33.32;30.35;100551.38;5051637;28;20095;-71
2021/06/18 10:52:38;;;;;;;6.95;5.35;;;;;;;33.30;30.45;100548.06;5042696;28;20045;-68
2021/06/18 10:55:06;;;;;;;9.73;6.00;;;;;;;33.37;30.23;100542.59;5065352;28;20045;-66
2021/06/18 10:57:33;;;;;;;8.95;5.40;;;;;;;33.26;31.13;100543.31;5068762;28;20407;-68
2021/06/18 11:00:09;;;;;;;9.88;6.35;;;;;;;33.11;31.57;100535.50;5056008;28;20033;-72
2021/06/18 11:02:39;;;;;;;18.58;7.07;;;;;;;32.94;31.12;100535.19;5057749;28;20095;-70
2021/06/18 11:05:28;;;;;;;10.27;5.55;;;;;;;33.06;31.10;100546.13;5053060;28;20081;-67
2021/06/18 11:08:25;;;;;;;6.85;6.18;;;;;;;32.97;32.01;100542.00;5054168;28;20037;-67
2021/06/18 11:11:21;;;;;;;12.93;6.30;;;;;;;32.76;32.12;100535.88;5053850;28;20420;-63
2021/06/18 11:14:10;;;;;;;8.70;6.97;;;;;;;32.73;31.49;100535.47;5054239;28;20365;-63
2021/06/18 11:16:41;;;;;;;12.25;6.55;;;;;;;32.69;31.78;100539.63;5052438;28;20411;-64
2021/06/18 11:19:25;;;;;;;10.05;5.55;;;;;;;32.77;32.61;100537.53;5053410;28;20492;-65
2021/06/18 11:21:53;;;;;;;11.57;6.10;;;;;;;32.55;32.15;100538.88;5053594;28;20047;-64
2021/06/18 11:24:42;;;;;;;6.70;5.13;;;;;;;32.61;31.58;100538.03;5054575;28;20064;-68
2021/06/18 11:27:23;;;;;;;5.65;5.15;;;;;;;32.81;31.92;100540.63;5051260;28;20492;-68
2021/06/18 11:30:28;;;;;;;6.57;5.40;;;;;;;32.81;30.66;100535.22;5053612;28;20053;-69
2021/06/18 11:32:57;;;;;;;8.70;5.03;;;;;;;32.69;29.88;100532.38;5050796;28;20045;-68
2021/06/18 11:35:33;;;;;;;6.70;4.90;;;;;;;32.63;29.86;100527.84;5051171;28;20045;-67